Time;durP1;ratioP1;P1;durP2;ratioP2;P2;SDS_P1;SDS_P2;PMS_P1;PMS_P2;Temp;Humidity;BMP_temperature;BMP_pressure;BME280_temperature;BME280_humidity;BME280_pressure;Samples;Min_cycle;Max_cycle;Signal;HPM_P1;HPM_P2
2020/12/01 00:00:45;;;;;;;9.65;4.53;;;;;;;6.23;93.25;102884.56;5070795;28;20040;-86
2020/12/01 00:03:10;;;;;;;12.35;4.22;;;;;;;6.25;92.97;102879.31;5055970;28;20036;-86
2020/12/01 00:05:36;;;;;;;14.98;4.75;;;;;;;6.27;92.92;102886.16;5052087;28;20491;-86
2020/12/01 00:08:02;;;;;;;12.60;4.55;;;;;;;6.30;93.03;102882.56;5052926;28;20120;-85
2020/12/01 00:10:28;;;;;;;10.07;4.40;;;;;;;6.35;93.07;102882.41;5052774;28;20025;-85
2020/12/01 00:12:53;;;;;;;15.32;4.93;;;;;;;6.38;92.87;102874.47;5052574;28;20033;-85
2020/12/01 00:15:22;;;;;;;15.13;4.82;;;;;;;6.43;92.84;102881.19;5053881;28;20028;-85
2020/12/01 00:17:48;;;;;;;14.55;4.97;;;;;;;6.46;93.09;102888.88;5052267;28;20029;-85
2020/12/01 00:20:16;;;;;;;15.77;5.63;;;;;;;6.48;92.89;102881.03;5053371;28;20104;-85
2020/12/01 00:22:42;;;;;;;15.65;5.05;;;;;;;6.52;92.86;102883.44;5052641;28;20036;-84
2020/12/01 00:25:08;;;;;;;9.00;4.60;;;;;;;6.53;92.88;102885.16;5052206;28;20029;-85
2020/12/01 00:27:35;;;;;;;14.00;4.65;;;;;;;6.55;92.75;102885.94;5052225;28;20029;-85
2020/12/01 00:30:01;;;;;;;17.50;5.10;;;;;;;6.57;92.90;102891.94;5052157;28;20024;-85
2020/12/01 00:32:26;;;;;;;15.85;3.97;;;;;;;6.61;92.97;102892.66;5052190;28;20123;-84
2020/12/01 00:34:52;;;;;;;13.00;4.18;;;;;;;6.61;93.17;102895.25;5052141;28;20117;-84
2020/12/01 00:37:17;;;;;;;14.77;4.93;;;;;;;6.63;92.82;102895.19;5052141;28;20025;-84
2020/12/01 00:39:43;;;;;;;16.10;3.85;;;;;;;6.63;92.89;102888.25;5051847;28;20045;-84
2020/12/01 00:42:08;;;;;;;13.32;4.22;;;;;;;6.63;92.87;102900.41;5051666;28;20044;-85
2020/12/01 00:44:33;;;;;;;12.82;3.63;;;;;;;6.63;92.85;102896.06;5052026;28;20029;-84
2020/12/01 00:46:59;;;;;;;13.45;3.85;;;;;;;6.65;92.67;102893.41;5052604;28;20079;-85
2020/12/01 00:49:24;;;;;;;14.95;3.35;;;;;;;6.67;92.63;102896.78;5051784;28;20476;-84
2020/12/01 00:51:50;;;;;;;11.60;3.75;;;;;;;6.67;92.77;102913.28;5052032;28;20594;-84
2020/12/01 00:54:17;;;;;;;12.38;3.83;;;;;;;6.69;92.58;102914.06;5051886;28;20029;-84
2020/12/01 00:56:42;;;;;;;11.18;3.40;;;;;;;6.69;92.93;102919.28;5051850;28;20032;-85
2020/12/01 00:59:08;;;;;;;11.35;3.10;;;;;;;6.71;92.57;102921.81;5051709;28;20029;-85
2020/12/01 01:01:34;;;;;;;15.13;3.40;;;;;;;6.72;92.44;102919.16;5051506;28;20052;-84
2020/12/01 01:03:59;;;;;;;13.55;3.25;;;;;;;6.72;92.63;102918.31;5052461;28;20125;-84
2020/12/01 01:06:24;;;;;;;11.50;3.40;;;;;;;6.73;92.43;102915.63;5051389;28;20033;-84
2020/12/01 01:08:50;;;;;;;10.93;3.30;;;;;;;6.75;92.57;102919.03;5051556;28;20082;-83
2020/12/01 01:11:15;;;;;;;13.90;3.70;;;;;;;6.76;92.48;102912.06;5051876;28;20479;-84
2020/12/01 01:13:41;;;;;;;10.70;3.03;;;;;;;6.75;92.25;102913.81;5051124;28;20033;-84
2020/12/01 01:16:07;;;;;;;10.88;3.33;;;;;;;6.74;92.17;102911.25;5051510;28;20064;-84
2020/12/01 01:18:33;;;;;;;9.60;3.30;;;;;;;6.72;92.76;102923.53;5050375;28;20067;-84
2020/12/01 01:20:59;;;;;;;8.88;3.17;;;;;;;6.70;92.31;102925.34;5052349;28;20032;-85
2020/12/01 01:23:24;;;;;;;14.15;3.65;;;;;;;6.67;92.40;102912.44;5052153;28;20479;-84
2020/12/01 01:25:49;;;;;;;14.52;3.35;;;;;;;6.65;92.67;102915.09;5051056;28;20184;-85
2020/12/01 01:28:15;;;;;;;11.27;2.88;;;;;;;6.63;92.41;102905.63;5051237;28;20060;-85
2020/12/01 01:30:41;;;;;;;10.70;3.63;;;;;;;6.59;92.49;102892.72;5051185;28;20017;-84
2020/12/01 01:33:08;;;;;;;12.05;2.95;;;;;;;6.56;92.31;102898.06;5051015;28;20039;-85
2020/12/01 01:35:34;;;;;;;11.18;3.08;;;;;;;6.54;92.59;102897.28;5051227;28;20029;-85
2020/12/01 01:38:04;;;;;;;13.23;3.88;;;;;;;6.49;92.39;102909.66;5050889;28;20541;-84
2020/12/01 01:40:32;;;;;;;10.20;2.50;;;;;;;6.43;92.19;102907.25;5050604;28;20044;-85
2020/12/01 01:42:58;;;;;;;11.93;2.80;;;;;;;6.40;92.35;102909.16;5050809;28;20028;-84
2020/12/01 01:45:45;;;;;;;9.75;2.92;;;;;;;6.34;92.18;102898.97;5051795;28;20054;-84
2020/12/01 01:48:29;;;;;;;7.43;2.60;;;;;;;6.31;92.31;102897.28;5050572;28;20025;-84
2020/12/01 01:50:57;;;;;;;11.35;2.67;;;;;;;6.27;92.14;102890.50;5050638;28;20024;-84
2020/12/01 01:53:23;;;;;;;10.82;2.65;;;;;;;6.23;92.38;102887.19;5050603;28;20484;-84
2020/12/01 01:55:53;;;;;;;11.23;2.20;;;;;;;6.23;92.36;102888.94;5051752;28;20040;-84
2020/12/01 01:58:21;;;;;;;12.40;4.00;;;;;;;6.21;92.31;102890.75;5051733;28;20384;-84
2020/12/01 02:00:56;;;;;;;13.75;2.75;;;;;;;6.19;92.30;102892.59;5050683;28;20106;-84
2020/12/01 02:03:40;;;;;;;9.95;2.72;;;;;;;6.14;92.21;102895.34;5050660;28;20028;-84
2020/12/01 02:06:17;;;;;;;14.35;2.95;;;;;;;6.14;91.91;102904.91;5050541;28;20036;-84
2020/12/01 02:08:45;;;;;;;7.22;2.47;;;;;;;6.13;92.07;102892.78;5050185;28;20024;-84
2020/12/01 02:11:10;;;;;;;15.23;2.97;;;;;;;6.15;92.23;102894.44;5051519;28;20484;-84
2020/12/01 02:13:48;;;;;;;7.90;2.65;;;;;;;6.18;92.08;102896.09;5050519;28;20059;-84
2020/12/01 02:16:14;;;;;;;10.65;3.05;;;;;;;6.20;92.24;102891.66;5050328;28;20029;-84
2020/12/01 02:18:40;;;;;;;12.82;2.35;;;;;;;6.22;92.14;102895.91;5050134;28;20025;-84
2020/12/01 02:21:35;;;;;;;10.38;2.50;;;;;;;6.23;92.11;102891.56;5050312;28;20114;-85
2020/12/01 02:24:04;;;;;;;10.68;2.80;;;;;;;6.24;92.04;102891.47;5049591;28;20025;-84
2020/12/01 02:26:29;;;;;;;10.32;2.28;;;;;;;6.25;92.12;102889.72;5050076;28;20037;-84
2020/12/01 02:28:55;;;;;;;13.38;2.53;;;;;;;6.24;91.82;102882.81;5051467;28;20170;-85
2020/12/01 02:31:21;;;;;;;11.15;2.50;;;;;;;6.24;92.01;102891.47;5054565;28;20372;-84
2020/12/01 02:33:47;;;;;;;12.38;2.60;;;;;;;6.24;91.84;102888.03;5054618;28;20037;-84
2020/12/01 02:36:12;;;;;;;12.98;3.45;;;;;;;6.25;91.99;102884.50;5054063;28;20025;-84
2020/12/01 02:38:38;;;;;;;13.27;3.20;;;;;;;6.26;91.88;102888.81;5055598;28;20033;-84
2020/12/01 02:41:03;;;;;;;11.35;3.15;;;;;;;6.27;91.96;102899.19;5056189;28;20041;-85
2020/12/01 02:43:30;;;;;;;8.57;3.25;;;;;;;6.30;91.93;102898.22;5053847;28;20064;-84
2020/12/01 02:45:55;;;;;;;9.48;2.40;;;;;;;6.31;91.98;102894.69;5053879;28;20496;-84
2020/12/01 02:48:21;;;;;;;8.32;2.47;;;;;;;6.33;91.98;102894.66;5054310;28;20043;-85
2020/12/01 02:50:46;;;;;;;13.40;2.58;;;;;;;6.33;92.00;102897.28;5037365;28;20053;-85
2020/12/01 02:53:12;;;;;;;9.57;2.53;;;;;;;6.34;91.92;102894.59;5054049;28;20163;-84
2020/12/01 02:55:37;;;;;;;12.27;2.50;;;;;;;6.33;92.04;102890.31;5053939;28;20037;-85
2020/12/01 02:58:03;;;;;;;9.23;2.80;;;;;;;6.33;91.96;102879.03;5054098;28;20079;-84
2020/12/01 03:00:28;;;;;;;10.00;3.40;;;;;;;6.30;92.10;102880.81;5053638;28;20086;-85
2020/12/01 03:02:54;;;;;;;9.45;3.50;;;;;;;6.29;92.15;102888.69;5053941;28;20037;-84
2020/12/01 03:05:19;;;;;;;10.85;3.55;;;;;;;6.29;91.82;102892.16;5053765;28;20067;-85
2020/12/01 03:07:44;;;;;;;8.50;3.63;;;;;;;6.27;91.89;102895.72;5053971;28;20476;-85
2020/12/01 03:10:10;;;;;;;6.57;3.13;;;;;;;6.27;91.93;102893.97;5037252;28;20116;-85
2020/12/01 03:12:37;;;;;;;9.35;3.70;;;;;;;6.25;92.08;102887.13;5053948;28;20037;-84
2020/12/01 03:15:08;;;;;;;12.23;4.15;;;;;;;6.21;91.96;102880.34;5054605;28;20037;-84
2020/12/01 03:17:34;;;;;;;17.33;3.90;;;;;;;6.20;92.15;102889.06;5053665;28;20052;-84
2020/12/01 03:19:59;;;;;;;11.18;2.97;;;;;;;6.16;91.97;102898.75;5054123;28;20136;-84
2020/12/01 03:22:24;;;;;;;10.63;3.00;;;;;;;6.15;92.15;102906.59;5044685;28;20126;-84
2020/12/01 03:24:50;;;;;;;11.10;3.53;;;;;;;6.14;92.01;102904.91;5059455;28;20029;-85
2020/12/01 03:27:15;;;;;;;11.77;4.07;;;;;;;6.14;92.02;102905.75;5053514;28;20548;-84
2020/12/01 03:29:41;;;;;;;17.52;4.53;;;;;;;6.14;92.15;102910.13;5054745;28;20032;-85
2020/12/01 03:32:06;;;;;;;11.55;4.20;;;;;;;6.14;92.06;102910.13;5053308;28;20017;-85
2020/12/01 03:34:32;;;;;;;13.35;4.00;;;;;;;6.15;92.17;102907.47;5036653;28;20025;-84
2020/12/01 03:36:57;;;;;;;10.95;3.90;;;;;;;6.16;92.15;102903.13;5052993;28;20021;-85
2020/12/01 03:39:22;;;;;;;11.55;3.83;;;;;;;6.16;92.14;102903.13;5053106;28;20040;-85
2020/12/01 03:41:48;;;;;;;14.05;3.50;;;;;;;6.17;92.14;102910.03;5035859;28;20422;-85
2020/12/01 03:44:13;;;;;;;14.27;3.25;;;;;;;6.16;92.16;102914.41;5053936;28;20029;-85
2020/12/01 03:46:39;;;;;;;16.17;3.88;;;;;;;6.17;91.99;102910.88;5053887;28;20029;-85
2020/12/01 03:49:04;;;;;;;12.48;2.88;;;;;;;6.18;92.06;102915.19;5053390;28;20025;-85
2020/12/01 03:51:30;;;;;;;14.38;2.97;;;;;;;6.20;92.04;102904.69;5053213;28;20135;-85
2020/12/01 03:53:55;;;;;;;8.57;2.65;;;;;;;6.20;91.79;102902.94;5052991;28;20059;-86
2020/12/01 03:56:21;;;;;;;8.73;2.67;;;;;;;6.19;92.02;102895.19;5053348;28;20021;-84
2020/12/01 03:58:47;;;;;;;8.55;2.80;;;;;;;6.19;91.91;102896.03;5054612;28;20111;-84
2020/12/01 04:01:13;;;;;;;11.93;3.35;;;;;;;6.19;92.01;102906.47;5056813;28;20021;-86
2020/12/01 04:03:38;;;;;;;9.45;2.63;;;;;;;6.19;91.92;102919.50;5061308;28;20415;-85
2020/12/01 04:06:05;;;;;;;9.65;2.13;;;;;;;6.18;91.85;102917.78;5041862;28;20029;-86
2020/12/01 04:08:30;;;;;;;8.75;2.47;;;;;;;6.18;92.12;102922.16;5053211;28;20370;-85
2020/12/01 04:11:00;;;;;;;12.38;2.28;;;;;;;6.17;92.08;102923.06;5053497;28;20047;-84
2020/12/01 04:13:27;;;;;;;9.68;2.55;;;;;;;6.18;92.04;102927.38;5053914;28;20040;-85
2020/12/01 04:15:52;;;;;;;12.85;2.55;;;;;;;6.18;91.80;102928.22;5059139;28;20395;-85
2020/12/01 04:18:17;;;;;;;10.95;2.42;;;;;;;6.19;92.15;102929.06;5060267;28;20017;-84
2020/12/01 04:20:43;;;;;;;9.85;3.00;;;;;;;6.21;91.96;102927.25;5058561;28;20025;-85
2020/12/01 04:23:08;;;;;;;8.57;2.30;;;;;;;6.22;92.10;102936.75;5054889;28;20033;-85
2020/12/01 04:25:34;;;;;;;8.63;2.40;;;;;;;6.24;92.00;102943.59;5055983;28;20020;-85
2020/12/01 04:27:59;;;;;;;9.38;2.63;;;;;;;6.27;91.83;102950.47;5055768;28;20067;-86
2020/12/01 04:30:25;;;;;;;12.05;3.25;;;;;;;6.29;91.84;102943.44;5053942;28;20072;-85
2020/12/01 04:32:52;;;;;;;10.38;2.55;;;;;;;6.32;91.92;102948.56;5054874;28;20117;-84
2020/12/01 04:35:20;;;;;;;12.65;2.53;;;;;;;6.35;91.89;102955.41;5054792;28;20071;-85
2020/12/01 04:37:46;;;;;;;9.13;2.30;;;;;;;6.37;91.91;102951.81;5053325;28;20039;-86
2020/12/01 04:40:15;;;;;;;7.82;2.25;;;;;;;6.41;91.69;102942.97;5053048;28;20037;-85
2020/12/01 04:42:49;;;;;;;12.95;2.50;;;;;;;6.42;91.64;102936.84;5056670;28;20039;-85
2020/12/01 04:45:15;;;;;;;12.07;2.47;;;;;;;6.43;91.94;102938.53;5058437;28;20078;-85
2020/12/01 04:48:22;;;;;;;11.90;3.60;;;;;;;6.44;91.81;102932.41;5058519;28;20035;-84
2020/12/01 04:50:56;;;;;;;17.85;2.85;;;;;;;6.47;91.72;102934.94;5042853;28;20044;-85
2020/12/01 04:53:57;;;;;;;12.00;2.50;;;;;;;6.48;91.72;102935.78;5052874;28;20446;-85
2020/12/01 04:56:34;;;;;;;9.73;2.50;;;;;;;6.48;91.78;102921.00;5052845;28;20037;-85
2020/12/01 04:59:30;;;;;;;12.63;2.92;;;;;;;6.48;91.68;102923.59;5053206;28;20029;-85
2020/12/01 05:02:04;;;;;;;10.05;2.33;;;;;;;6.49;91.71;102924.44;5058073;28;20032;-85
2020/12/01 05:04:46;;;;;;;13.10;3.38;;;;;;;6.48;91.61;102914.94;5052009;28;20022;-85
2020/12/01 05:07:35;;;;;;;7.95;1.90;;;;;;;6.49;91.65;102911.41;5051845;28;20037;-85
2020/12/01 05:10:07;;;;;;;12.93;2.75;;;;;;;6.49;91.63;102904.44;5051913;28;20025;-85
2020/12/01 05:12:37;;;;;;;9.57;2.25;;;;;;;6.49;91.64;102906.19;5053074;28;20037;-85
2020/12/01 05:15:15;;;;;;;13.18;2.58;;;;;;;6.45;91.61;102905.44;5052721;28;20108;-85
2020/12/01 05:18:14;;;;;;;9.85;2.05;;;;;;;6.44;91.66;102908.09;5051775;28;20052;-85
2020/12/01 05:20:53;;;;;;;14.15;2.35;;;;;;;6.44;91.80;102910.72;5053601;28;20544;-85
2020/12/01 05:23:40;;;;;;;9.15;2.95;;;;;;;6.41;91.53;102903.88;5051658;28;20032;-85
2020/12/01 05:26:09;;;;;;;9.20;2.22;;;;;;;6.42;91.67;102908.16;5051337;28;20040;-85
2020/12/01 05:28:56;;;;;;;11.02;2.47;;;;;;;6.38;91.42;102904.00;5051515;28;20044;-85
2020/12/01 05:31:38;;;;;;;11.75;2.55;;;;;;;6.35;91.61;102906.72;5051665;28;20171;-85
2020/12/01 05:34:06;;;;;;;13.13;2.17;;;;;;;6.30;91.16;102904.28;5050631;28;20085;-85
2020/12/01 05:36:37;;;;;;;7.00;2.05;;;;;;;6.26;91.73;102915.72;5051218;28;20029;-85
2020/12/01 05:39:18;;;;;;;16.73;2.92;;;;;;;6.22;91.55;102913.31;5051008;28;20106;-85
2020/12/01 05:41:48;;;;;;;11.82;2.65;;;;;;;6.18;91.78;102906.53;5050911;28;20045;-85
2020/12/01 05:44:24;;;;;;;13.15;2.28;;;;;;;6.17;91.71;102907.44;5050959;28;20035;-85
2020/12/01 05:47:11;;;;;;;9.85;2.45;;;;;;;6.14;91.71;102912.72;5052092;28;20372;-86
2020/12/01 05:49:48;;;;;;;8.68;2.80;;;;;;;6.13;91.65;102917.09;5051156;28;20029;-85
2020/12/01 05:52:26;;;;;;;9.82;2.30;;;;;;;6.13;91.71;102913.63;5050966;28;20343;-86
2020/12/01 05:55:15;;;;;;;11.50;2.65;;;;;;;6.11;91.54;102905.03;5051337;28;20032;-85
2020/12/01 05:57:42;;;;;;;11.20;2.17;;;;;;;6.12;91.55;102910.19;5052254;28;20029;-85
2020/12/01 06:00:15;;;;;;;14.98;2.47;;;;;;;6.14;91.59;102913.56;5052589;28;20017;-85
2020/12/01 06:02:40;;;;;;;12.02;2.70;;;;;;;6.16;91.33;102908.34;5052607;28;20025;-86
2020/12/01 06:05:09;;;;;;;11.10;2.92;;;;;;;6.18;91.76;102916.94;5051971;28;20082;-85
2020/12/01 06:07:35;;;;;;;13.13;2.70;;;;;;;6.18;91.61;102923.00;5052166;28;20063;-85
2020/12/01 06:10:16;;;;;;;8.07;2.28;;;;;;;6.20;91.56;102931.59;5034386;28;20029;-84
2020/12/01 06:12:57;;;;;;;13.35;2.72;;;;;;;6.23;91.59;102936.69;5051980;28;20025;-85
2020/12/01 06:15:23;;;;;;;10.23;2.25;;;;;;;6.26;91.53;102939.19;5053823;28;20045;-85
2020/12/01 06:18:05;;;;;;;12.57;2.70;;;;;;;6.29;91.56;102940.81;5034210;28;20479;-85
2020/12/01 06:20:50;;;;;;;14.90;2.70;;;;;;;6.31;91.63;102949.44;5051276;28;20021;-85
2020/12/01 06:23:24;;;;;;;10.30;2.60;;;;;;;6.34;91.58;102951.94;5051600;28;20033;-84
2020/12/01 06:26:24;;;;;;;12.45;2.85;;;;;;;6.35;91.42;102948.44;5050654;28;20032;-85
2020/12/01 06:29:14;;;;;;;10.65;2.70;;;;;;;6.37;91.31;102957.03;5051519;28;20056;-86
2020/12/01 06:31:49;;;;;;;8.80;2.70;;;;;;;6.40;91.30;102954.31;5055276;28;20033;-86
2020/12/01 06:34:22;;;;;;;10.25;2.95;;;;;;;6.42;91.34;102952.50;5058271;28;20095;-86
2020/12/01 06:36:47;;;;;;;11.88;2.58;;;;;;;6.44;91.24;102953.28;5054284;28;20033;-85
2020/12/01 06:39:16;;;;;;;13.77;2.90;;;;;;;6.46;91.35;102956.66;5052306;28;20032;-86
2020/12/01 06:41:46;;;;;;;9.38;2.67;;;;;;;6.49;91.19;102960.94;5050279;28;20041;-85
2020/12/01 06:44:14;;;;;;;12.68;2.47;;;;;;;6.49;91.39;102969.63;5050720;28;20028;-85
2020/12/01 06:46:58;;;;;;;9.27;2.20;;;;;;;6.50;90.99;102971.31;5050396;28;20080;-86
2020/12/01 06:49:27;;;;;;;11.02;2.60;;;;;;;6.53;91.11;102968.56;5051287;28;20029;-85
2020/12/01 06:51:57;;;;;;;14.20;2.83;;;;;;;6.53;90.94;102958.16;5050661;28;20048;-86
2020/12/01 06:54:23;;;;;;;11.90;3.00;;;;;;;6.55;90.85;102948.50;5052540;28;20116;-86
2020/12/01 06:57:01;;;;;;;11.27;2.50;;;;;;;6.56;90.94;102965.84;5050448;28;20017;-85
2020/12/01 06:59:27;;;;;;;10.48;2.88;;;;;;;6.59;90.95;102970.09;5050385;28;20029;-86
2020/12/01 07:01:52;;;;;;;9.70;2.63;;;;;;;6.60;90.95;102970.03;5051342;28;20055;-85
2020/12/01 07:04:27;;;;;;;10.68;2.70;;;;;;;6.60;90.88;102970.03;5050925;28;20020;-86
2020/12/01 07:06:59;;;;;;;9.95;2.28;;;;;;;6.62;90.59;102980.41;5045733;28;20029;-86
2020/12/01 07:09:43;;;;;;;11.30;2.90;;;;;;;6.61;90.69;102987.38;5050355;28;20032;-85
2020/12/01 07:12:15;;;;;;;9.90;3.33;;;;;;;6.63;90.63;102989.94;5050584;28;20578;-86
2020/12/01 07:14:50;;;;;;;17.92;3.42;;;;;;;6.63;90.73;102976.91;5051388;28;20029;-86
2020/12/01 07:17:22;;;;;;;;;;;;;;;6.62;90.65;102969.97;5053762;28;20380;-86
2020/12/01 07:19:58;;;;;;;12.63;3.45;;;;;;;6.66;90.54;102981.16;5055073;28;19916;-86
2020/12/01 07:22:42;;;;;;;15.60;3.50;;;;;;;6.66;90.51;102988.97;5053967;28;20025;-85
2020/12/01 07:25:22;;;;;;;11.63;3.90;;;;;;;6.67;90.77;102980.25;5053854;28;20029;-86
2020/12/01 07:28:05;;;;;;;10.57;3.00;;;;;;;6.68;90.52;102985.41;5052901;28;20025;-86
2020/12/01 07:30:33;;;;;;;11.65;3.40;;;;;;;6.70;90.70;102991.41;5053274;28;20033;-85
2020/12/01 07:32:59;;;;;;;15.80;2.92;;;;;;;6.72;90.54;102988.72;5053214;28;20024;-87
2020/12/01 07:35:50;;;;;;;11.43;3.13;;;;;;;6.73;90.48;102999.09;5053178;28;20032;-85
2020/12/01 07:38:36;;;;;;;10.88;3.08;;;;;;;6.74;90.42;102997.34;5053343;28;20111;-85
2020/12/01 07:41:24;;;;;;;11.23;2.90;;;;;;;6.76;90.37;103000.72;5054258;28;20514;-85
2020/12/01 07:44:06;;;;;;;11.35;3.13;;;;;;;6.78;90.15;102999.75;5053469;28;20033;-86
2020/12/01 07:46:51;;;;;;;9.52;2.58;;;;;;;6.79;90.13;102992.81;5055483;28;20056;-85
2020/12/01 07:49:23;;;;;;;13.48;2.30;;;;;;;6.80;89.94;102994.50;5053197;28;20032;-86
2020/12/01 07:51:55;;;;;;;8.63;2.67;;;;;;;6.81;89.99;102996.22;5052977;28;20396;-85
2020/12/01 07:54:24;;;;;;;12.25;3.28;;;;;;;6.83;89.78;103007.44;5053199;28;20029;-86
2020/12/01 07:56:49;;;;;;;11.45;2.85;;;;;;;6.85;89.83;103013.44;5053102;28;20028;-85
2020/12/01 07:59:16;;;;;;;11.18;3.30;;;;;;;6.87;89.90;103022.03;5053591;28;20476;-85
2020/12/01 08:01:44;;;;;;;8.98;3.30;;;;;;;6.89;89.95;103022.84;5053479;28;20036;-85
2020/12/01 08:04:17;;;;;;;16.70;2.75;;;;;;;6.89;89.83;103018.47;5055058;28;20048;-85
2020/12/01 08:06:44;;;;;;;12.13;2.90;;;;;;;6.93;89.90;103018.34;5052836;28;20014;-85
2020/12/01 08:09:29;;;;;;;12.20;3.20;;;;;;;6.96;89.62;103011.25;5053026;28;20021;-84
2020/12/01 08:11:58;;;;;;;12.35;2.67;;;;;;;7.00;89.64;103007.63;5052697;28;20028;-84
2020/12/01 08:14:24;;;;;;;11.35;3.28;;;;;;;7.08;89.45;103015.13;5052475;28;20021;-85
2020/12/01 08:17:07;;;;;;;10.57;2.92;;;;;;;7.17;89.22;103015.63;5052762;28;20713;-85
2020/12/01 08:19:34;;;;;;;12.07;2.47;;;;;;;7.27;89.00;103016.09;5051992;28;20028;-85
2020/12/01 08:22:03;;;;;;;15.52;3.60;;;;;;;7.38;88.60;103018.25;5052306;28;20360;-85
2020/12/01 08:24:30;;;;;;;8.57;3.15;;;;;;;7.50;88.13;103007.31;5055729;28;20029;-85
2020/12/01 08:27:25;;;;;;;11.30;2.85;;;;;;;7.57;88.04;103000.91;5053028;28;20025;-85
2020/12/01 08:29:53;;;;;;;14.27;3.47;;;;;;;7.65;87.67;102996.22;5043208;28;20098;-85
2020/12/01 08:32:37;;;;;;;13.15;3.05;;;;;;;7.75;87.37;103004.53;5054139;28;20056;-85
2020/12/01 08:35:24;;;;;;;8.98;2.92;;;;;;;7.86;87.10;103010.13;5063422;28;20028;-85
2020/12/01 08:38:17;;;;;;;14.85;3.03;;;;;;;7.91;86.98;102989.88;5072644;28;20046;-85
2020/12/01 08:41:03;;;;;;;19.92;3.70;;;;;;;7.96;86.79;102994.91;5072081;28;20036;-85
2020/12/01 08:43:45;;;;;;;9.82;2.75;;;;;;;8.00;86.76;102994.69;5071953;28;20082;-85
2020/12/01 08:46:16;;;;;;;16.42;3.60;;;;;;;8.03;87.08;102994.53;5071556;28;20028;-84
2020/12/01 08:48:51;;;;;;;10.95;2.80;;;;;;;8.05;86.86;103003.19;5072177;28;20127;-84
2020/12/01 08:51:21;;;;;;;10.33;3.30;;;;;;;8.06;86.76;102999.66;5072368;28;20078;-86
2020/12/01 08:53:58;;;;;;;15.98;2.88;;;;;;;8.08;86.44;103003.06;5073447;28;20028;-85
2020/12/01 08:56:34;;;;;;;15.77;3.38;;;;;;;8.10;86.32;102997.75;5073612;28;20106;-86
2020/12/01 08:59:04;;;;;;;12.77;3.17;;;;;;;8.13;86.37;103000.22;5072352;28;20502;-86
2020/12/01 09:01:38;;;;;;;18.52;4.45;;;;;;;8.09;85.90;103009.97;5071948;28;20104;-85
2020/12/01 09:04:04;;;;;;;13.63;3.65;;;;;;;8.12;86.18;103016.84;5072743;28;20078;-86
2020/12/01 09:06:34;;;;;;;13.60;3.75;;;;;;;8.15;86.10;103021.06;5075426;28;20024;-84
2020/12/01 09:09:07;;;;;;;16.88;4.80;;;;;;;8.16;86.05;103018.38;5075826;28;20016;-84
2020/12/01 09:17:36;;;;;;;28.58;7.82;;;;;;;8.16;86.04;103010.53;5073076;28;20111;-84
2020/12/01 09:20:51;;;;;;;13.18;3.85;;;;;;;8.16;85.95;103015.78;5071381;28;20056;-85
2020/12/01 09:23:14;;;;;;;11.18;3.63;;;;;;;8.16;85.74;103004.47;5072132;28;20119;-85
2020/12/01 09:25:41;;;;;;;13.57;3.20;;;;;;;8.17;85.70;103000.94;5071197;28;20017;-85
2020/12/01 09:28:13;;;;;;;13.95;3.13;;;;;;;8.16;85.73;103000.09;5071341;28;20020;-84
2020/12/01 09:30:40;;;;;;;14.15;4.10;;;;;;;8.17;85.75;103003.53;5073058;28;20033;-84
2020/12/01 09:33:10;;;;;;;11.07;3.35;;;;;;;8.17;85.71;103004.41;5076494;28;20082;-85
2020/12/01 09:35:35;;;;;;;13.00;3.38;;;;;;;8.16;85.74;102997.47;5074923;28;20141;-84
2020/12/01 09:38:01;;;;;;;11.00;2.92;;;;;;;8.17;85.66;102998.31;5075510;28;20032;-84
2020/12/01 09:40:27;;;;;;;12.63;3.20;;;;;;;8.18;85.56;102995.63;5076014;28;20036;-85
2020/12/01 09:42:59;;;;;;;16.30;2.95;;;;;;;8.19;85.28;102994.72;5074412;28;20024;-85
2020/12/01 09:45:27;;;;;;;10.85;2.92;;;;;;;8.23;85.39;102990.22;5078615;28;20017;-84
2020/12/01 09:48:05;;;;;;;9.18;3.00;;;;;;;8.24;85.06;102990.16;5078912;28;20035;-84
2020/12/01 09:50:34;;;;;;;17.15;3.20;;;;;;;8.27;84.73;102984.78;5077648;28;20085;-84
2020/12/01 09:55:49;;;;;;;14.63;3.17;;;;;;;8.36;84.76;102983.53;5075878;28;20073;-84
2020/12/01 10:08:53;;;;;;;19.88;3.10;;;;;;;8.58;84.27;102986.00;5050748;28;20120;-85
2020/12/01 10:16:48;;;;;;;10.13;2.83;;;;;;;8.61;83.88;102993.72;5080539;28;20502;-85
2020/12/01 10:29:12;;;;;;;11.10;3.00;;;;;;;8.53;84.15;102991.47;5076531;28;20498;-84
2020/12/01 10:37:17;;;;;;;9.65;2.47;;;;;;;8.49;84.39;103000.34;5071586;28;20035;-84
2020/12/01 10:39:43;;;;;;;13.15;2.83;;;;;;;8.51;84.40;102992.44;5069831;28;20036;-86
2020/12/01 10:42:11;;;;;;;9.85;2.70;;;;;;;8.55;84.48;102994.00;5070483;28;20020;-85
2020/12/01 10:44:37;;;;;;;12.73;2.85;;;;;;;8.58;84.53;102988.63;5069809;28;20115;-84
2020/12/01 10:47:03;;;;;;;13.18;2.85;;;;;;;8.62;84.68;102990.19;5071557;28;20028;-84
2020/12/01 10:49:29;;;;;;;12.45;3.00;;;;;;;8.68;84.46;102989.91;5070562;28;20077;-84
2020/12/01 10:51:54;;;;;;;9.80;2.92;;;;;;;8.75;84.55;102982.59;5074522;28;20063;-85
2020/12/01 10:54:20;;;;;;;11.27;3.10;;;;;;;8.80;84.62;102975.38;5073952;28;20494;-85
2020/12/01 10:56:50;;;;;;;7.65;2.22;;;;;;;8.86;84.58;102980.34;5073986;28;20048;-85
2020/12/01 10:59:16;;;;;;;8.10;3.00;;;;;;;8.91;84.59;102979.19;5074355;28;20083;-83
2020/12/01 11:01:42;;;;;;;8.27;2.40;;;;;;;8.97;84.60;102984.09;5079156;28;20027;-84
2020/12/01 11:04:09;;;;;;;9.63;3.08;;;;;;;9.04;84.37;102978.59;5085734;28;20212;-82
2020/12/01 11:06:36;;;;;;;9.65;2.58;;;;;;;9.09;84.32;102974.81;5082480;28;20294;-83
2020/12/01 11:09:04;;;;;;;8.93;2.08;;;;;;;9.14;84.33;102967.56;5083733;28;20094;-83
2020/12/01 11:11:30;;;;;;;14.95;3.10;;;;;;;9.21;84.35;102968.13;5082666;28;20024;-84
2020/12/01 11:13:55;;;;;;;11.38;3.05;;;;;;;9.24;84.35;102966.22;5081726;28;20035;-84
2020/12/01 11:16:21;;;;;;;11.82;3.08;;;;;;;9.28;84.35;102967.75;5081436;28;20024;-83
2020/12/01 11:18:46;;;;;;;12.38;3.15;;;;;;;9.32;84.11;102967.63;5082300;28;20092;-84
2020/12/01 11:21:12;;;;;;;12.23;3.00;;;;;;;9.34;84.18;102964.00;5078234;28;20056;-84
2020/12/01 11:23:37;;;;;;;13.70;3.90;;;;;;;9.36;84.09;102966.53;5077134;28;20074;-84
2020/12/01 11:26:03;;;;;;;11.15;3.47;;;;;;;9.39;84.26;102972.44;5077408;28;20046;-83
2020/12/01 11:28:28;;;;;;;12.77;2.92;;;;;;;9.43;84.21;102973.13;5076106;28;20116;-84
2020/12/01 11:30:54;;;;;;;15.65;3.45;;;;;;;9.47;84.25;102970.31;5077318;28;20126;-84
2020/12/01 11:33:19;;;;;;;8.98;2.80;;;;;;;9.51;84.30;102963.13;5077964;28;20031;-84
2020/12/01 11:35:45;;;;;;;10.93;2.90;;;;;;;9.52;84.32;102967.44;5076455;28;20036;-84
2020/12/01 11:38:10;;;;;;;10.77;2.58;;;;;;;9.54;84.37;102955.09;5078288;28;20032;-83
2020/12/01 11:40:36;;;;;;;12.55;2.33;;;;;;;9.56;84.57;102958.50;5077150;28;20040;-84
2020/12/01 11:43:02;;;;;;;8.73;2.47;;;;;;;9.56;84.72;102945.41;5077393;28;20677;-84
2020/12/01 11:45:27;;;;;;;6.75;1.90;;;;;;;9.57;84.55;102947.94;5074207;28;20038;-84
2020/12/01 11:47:52;;;;;;;13.93;2.30;;;;;;;9.59;84.63;102942.63;5069733;28;20021;-85
2020/12/01 11:50:18;;;;;;;8.82;2.00;;;;;;;9.60;84.47;102947.78;5053170;28;20025;-84
2020/12/01 11:52:44;;;;;;;7.90;2.28;;;;;;;9.63;84.83;102933.69;5052300;28;20079;-84
2020/12/01 11:55:10;;;;;;;7.38;2.10;;;;;;;9.66;84.79;102928.28;5053224;28;20055;-84
2020/12/01 11:57:35;;;;;;;9.90;2.03;;;;;;;9.67;84.91;102923.88;5052804;28;20025;-84
2020/12/01 12:00:02;;;;;;;10.50;3.15;;;;;;;9.67;85.06;102919.50;5052655;28;20021;-82
2020/12/01 12:02:28;;;;;;;8.95;2.95;;;;;;;9.70;84.82;102914.09;5056785;28;20040;-83
2020/12/01 12:04:53;;;;;;;12.50;3.25;;;;;;;9.71;85.21;102914.94;5054323;28;20472;-84
2020/12/01 12:07:19;;;;;;;10.05;2.35;;;;;;;9.74;85.03;102907.75;5054987;28;20176;-84
2020/12/01 12:09:44;;;;;;;6.97;2.25;;;;;;;9.75;85.30;102892.88;5054030;28;20468;-83
2020/12/01 12:12:10;;;;;;;6.55;1.90;;;;;;;9.74;85.28;102891.19;5054592;28;20025;-84
2020/12/01 12:14:35;;;;;;;11.18;2.67;;;;;;;9.76;85.17;102889.31;5054622;28;20029;-84
2020/12/01 12:17:01;;;;;;;6.40;2.28;;;;;;;9.79;85.29;102892.66;5055109;28;20028;-84
2020/12/01 12:19:26;;;;;;;11.20;3.08;;;;;;;9.79;85.37;102889.19;5055269;28;20021;-85
2020/12/01 12:21:52;;;;;;;7.10;2.65;;;;;;;9.79;85.26;102891.81;5055637;28;20032;-86